Terminal Aerodrome Forecast
Issued by NWS Green Bay, WI

Home | Current Version | Previous Version | Graphics & Text | Print | Product List | Glossary On
Versions: 1 2 3 4 5 6 7 8 9 10 11 12 13 14 15 16 17 18
000
FTUS43 KGRB 291700
TAFGRB
TAF
KGRB 291728Z 2918/3018 32012KT P6SM BKN035
     FM292000 30011KT P6SM SCT035 BKN050
     FM292200 30008KT P6SM BKN035
     FM300000 VRB03KT P6SM BKN035
      TEMPO 3002/3006 SCT035
     FM300900 VRB02KT P6SM OVC150
     FM301200 25006KT P6SM SCT025 OVC100=

USA.gov is the U.S. government's official web portal to all federal, state and local government web resources and services.